sensor_id;sensor_type;location;lat;lon;timestamp;P1;durP1;ratioP1;P2;durP2;ratioP2
17151;SDS011;8691;50.828;4.700;2022-10-16T00:03:33;3.33;;;2.10;;
17151;SDS011;8691;50.828;4.700;2022-10-16T00:06:00;3.40;;;2.20;;
17151;SDS011;8691;50.828;4.700;2022-10-16T00:08:26;3.00;;;2.00;;
17151;SDS011;8691;50.828;4.700;2022-10-16T00:10:58;3.50;;;2.10;;
17151;SDS011;8691;50.828;4.700;2022-10-16T00:13:20;4.97;;;2.80;;
17151;SDS011;8691;50.828;4.700;2022-10-16T00:15:46;3.85;;;1.88;;
17151;SDS011;8691;50.828;4.700;2022-10-16T00:18:13;3.03;;;1.70;;
17151;SDS011;8691;50.828;4.700;2022-10-16T00:20:40;3.80;;;1.98;;
17151;SDS011;8691;50.828;4.700;2022-10-16T00:23:07;4.60;;;1.92;;
17151;SDS011;8691;50.828;4.700;2022-10-16T00:25:34;3.20;;;1.60;;
17151;SDS011;8691;50.828;4.700;2022-10-16T00:28:01;3.77;;;1.53;;
17151;SDS011;8691;50.828;4.700;2022-10-16T00:30:28;4.32;;;1.60;;
17151;SDS011;8691;50.828;4.700;2022-10-16T00:32:55;2.65;;;1.80;;
17151;SDS011;8691;50.828;4.700;2022-10-16T00:35:21;5.30;;;1.50;;
17151;SDS011;8691;50.828;4.700;2022-10-16T00:37:48;2.95;;;1.45;;
17151;SDS011;8691;50.828;4.700;2022-10-16T00:40:15;2.27;;;1.30;;
17151;SDS011;8691;50.828;4.700;2022-10-16T00:42:42;1.73;;;1.30;;
17151;SDS011;8691;50.828;4.700;2022-10-16T00:45:09;3.17;;;1.20;;
17151;SDS011;8691;50.828;4.700;2022-10-16T00:47:43;2.27;;;1.23;;
17151;SDS011;8691;50.828;4.700;2022-10-16T00:50:10;1.98;;;1.30;;
17151;SDS011;8691;50.828;4.700;2022-10-16T00:52:36;2.77;;;1.30;;
17151;SDS011;8691;50.828;4.700;2022-10-16T00:55:03;2.62;;;1.40;;
17151;SDS011;8691;50.828;4.700;2022-10-16T00:57:30;2.25;;;1.55;;
17151;SDS011;8691;50.828;4.700;2022-10-16T00:59:57;3.70;;;1.33;;
17151;SDS011;8691;50.828;4.700;2022-10-16T01:02:24;2.90;;;1.30;;
17151;SDS011;8691;50.828;4.700;2022-10-16T01:04:51;2.10;;;1.30;;
17151;SDS011;8691;50.828;4.700;2022-10-16T01:10:03;3.62;;;1.20;;
17151;SDS011;8691;50.828;4.700;2022-10-16T01:12:33;1.83;;;1.50;;
17151;SDS011;8691;50.828;4.700;2022-10-16T01:15:15;1.27;;;1.10;;
17151;SDS011;8691;50.828;4.700;2022-10-16T01:17:43;1.90;;;1.20;;
17151;SDS011;8691;50.828;4.700;2022-10-16T01:20:27;1.80;;;1.10;;
17151;SDS011;8691;50.828;4.700;2022-10-16T01:25:35;1.90;;;1.10;;
17151;SDS011;8691;50.828;4.700;2022-10-16T01:27:57;2.97;;;1.10;;
17151;SDS011;8691;50.828;4.700;2022-10-16T01:30:26;1.27;;;1.10;;
17151;SDS011;8691;50.828;4.700;2022-10-16T01:32:55;1.60;;;1.10;;
17151;SDS011;8691;50.828;4.700;2022-10-16T01:35:27;1.83;;;1.10;;
17151;SDS011;8691;50.828;4.700;2022-10-16T01:40:34;2.00;;;1.00;;
17151;SDS011;8691;50.828;4.700;2022-10-16T01:43:47;1.30;;;1.20;;
17151;SDS011;8691;50.828;4.700;2022-10-16T01:45:27;1.53;;;1.27;;
17151;SDS011;8691;50.828;4.700;2022-10-16T01:47:54;2.90;;;1.40;;
17151;SDS011;8691;50.828;4.700;2022-10-16T01:50:20;1.30;;;1.20;;
17151;SDS011;8691;50.828;4.700;2022-10-16T01:52:48;2.58;;;1.42;;
17151;SDS011;8691;50.828;4.700;2022-10-16T01:55:15;2.95;;;1.25;;
17151;SDS011;8691;50.828;4.700;2022-10-16T01:57:41;2.03;;;1.20;;
17151;SDS011;8691;50.828;4.700;2022-10-16T02:00:09;1.43;;;1.27;;
17151;SDS011;8691;50.828;4.700;2022-10-16T02:02:34;3.03;;;1.50;;
17151;SDS011;8691;50.828;4.700;2022-10-16T02:05:04;2.05;;;1.52;;
17151;SDS011;8691;50.828;4.700;2022-10-16T02:07:28;2.27;;;1.30;;
17151;SDS011;8691;50.828;4.700;2022-10-16T02:09:55;1.73;;;1.40;;
17151;SDS011;8691;50.828;4.700;2022-10-16T02:12:31;2.63;;;1.37;;
17151;SDS011;8691;50.828;4.700;2022-10-16T02:14:54;2.30;;;1.30;;
17151;SDS011;8691;50.828;4.700;2022-10-16T02:17:22;2.50;;;1.40;;
17151;SDS011;8691;50.828;4.700;2022-10-16T02:19:50;2.70;;;1.30;;
17151;SDS011;8691;50.828;4.700;2022-10-16T02:22:19;2.33;;;1.00;;
17151;SDS011;8691;50.828;4.700;2022-10-16T02:27:24;3.50;;;1.50;;
17151;SDS011;8691;50.828;4.700;2022-10-16T02:29:53;2.83;;;1.43;;
17151;SDS011;8691;50.828;4.700;2022-10-16T02:32:23;1.92;;;1.40;;
17151;SDS011;8691;50.828;4.700;2022-10-16T02:34:49;3.03;;;1.30;;
17151;SDS011;8691;50.828;4.700;2022-10-16T02:37:16;2.80;;;1.47;;
17151;SDS011;8691;50.828;4.700;2022-10-16T02:39:43;2.90;;;1.40;;
17151;SDS011;8691;50.828;4.700;2022-10-16T02:42:13;2.62;;;1.40;;
17151;SDS011;8691;50.828;4.700;2022-10-16T02:44:36;2.10;;;1.52;;
17151;SDS011;8691;50.828;4.700;2022-10-16T02:47:03;1.50;;;1.40;;
17151;SDS011;8691;50.828;4.700;2022-10-16T02:49:30;3.88;;;1.45;;
17151;SDS011;8691;50.828;4.700;2022-10-16T02:51:57;3.22;;;1.60;;
17151;SDS011;8691;50.828;4.700;2022-10-16T02:54:24;1.75;;;1.30;;
17151;SDS011;8691;50.828;4.700;2022-10-16T02:56:51;2.55;;;1.40;;
17151;SDS011;8691;50.828;4.700;2022-10-16T02:59:18;1.40;;;1.30;;
17151;SDS011;8691;50.828;4.700;2022-10-16T03:01:45;2.40;;;1.50;;
17151;SDS011;8691;50.828;4.700;2022-10-16T03:04:12;3.05;;;1.50;;
17151;SDS011;8691;50.828;4.700;2022-10-16T03:06:40;2.40;;;1.35;;
17151;SDS011;8691;50.828;4.700;2022-10-16T03:09:07;2.67;;;1.40;;
17151;SDS011;8691;50.828;4.700;2022-10-16T03:11:34;2.00;;;1.30;;
17151;SDS011;8691;50.828;4.700;2022-10-16T03:14:00;2.97;;;1.63;;
17151;SDS011;8691;50.828;4.700;2022-10-16T03:16:27;2.05;;;1.50;;
17151;SDS011;8691;50.828;4.700;2022-10-16T03:18:54;3.42;;;1.70;;
17151;SDS011;8691;50.828;4.700;2022-10-16T03:21:22;2.08;;;1.40;;
17151;SDS011;8691;50.828;4.700;2022-10-16T03:23:48;2.10;;;1.40;;
17151;SDS011;8691;50.828;4.700;2022-10-16T03:26:15;2.60;;;1.60;;
17151;SDS011;8691;50.828;4.700;2022-10-16T03:28:42;2.70;;;1.52;;
17151;SDS011;8691;50.828;4.700;2022-10-16T03:31:09;3.85;;;1.50;;
17151;SDS011;8691;50.828;4.700;2022-10-16T03:33:35;1.37;;;1.20;;
17151;SDS011;8691;50.828;4.700;2022-10-16T03:36:02;2.35;;;1.60;;
17151;SDS011;8691;50.828;4.700;2022-10-16T03:38:29;4.30;;;1.60;;
17151;SDS011;8691;50.828;4.700;2022-10-16T03:40:56;2.83;;;1.60;;
17151;SDS011;8691;50.828;4.700;2022-10-16T03:43:23;2.85;;;1.48;;
17151;SDS011;8691;50.828;4.700;2022-10-16T03:45:51;4.88;;;1.90;;
17151;SDS011;8691;50.828;4.700;2022-10-16T03:48:18;1.73;;;1.30;;
17151;SDS011;8691;50.828;4.700;2022-10-16T03:50:44;2.10;;;1.63;;
17151;SDS011;8691;50.828;4.700;2022-10-16T03:53:11;2.50;;;1.80;;
17151;SDS011;8691;50.828;4.700;2022-10-16T03:55:38;2.50;;;1.60;;
17151;SDS011;8691;50.828;4.700;2022-10-16T03:58:04;2.27;;;1.60;;
17151;SDS011;8691;50.828;4.700;2022-10-16T04:00:31;2.40;;;1.60;;
17151;SDS011;8691;50.828;4.700;2022-10-16T04:02:58;2.67;;;1.70;;
17151;SDS011;8691;50.828;4.700;2022-10-16T04:05:25;2.92;;;1.70;;
17151;SDS011;8691;50.828;4.700;2022-10-16T04:07:51;2.00;;;1.90;;
17151;SDS011;8691;50.828;4.700;2022-10-16T04:10:18;2.50;;;2.00;;
17151;SDS011;8691;50.828;4.700;2022-10-16T04:12:45;2.60;;;1.70;;
17151;SDS011;8691;50.828;4.700;2022-10-16T04:15:11;4.28;;;2.30;;
17151;SDS011;8691;50.828;4.700;2022-10-16T04:17:38;3.80;;;2.20;;
17151;SDS011;8691;50.828;4.700;2022-10-16T04:20:05;3.95;;;2.47;;
17151;SDS011;8691;50.828;4.700;2022-10-16T04:22:32;4.83;;;2.20;;
17151;SDS011;8691;50.828;4.700;2022-10-16T04:24:59;3.27;;;2.00;;
17151;SDS011;8691;50.828;4.700;2022-10-16T04:27:25;4.50;;;2.42;;
17151;SDS011;8691;50.828;4.700;2022-10-16T04:29:52;2.92;;;2.53;;
17151;SDS011;8691;50.828;4.700;2022-10-16T04:32:20;4.82;;;2.35;;
17151;SDS011;8691;50.828;4.700;2022-10-16T04:34:47;3.07;;;2.20;;
17151;SDS011;8691;50.828;4.700;2022-10-16T04:37:15;4.20;;;2.70;;
17151;SDS011;8691;50.828;4.700;2022-10-16T04:39:42;5.30;;;2.60;;
17151;SDS011;8691;50.828;4.700;2022-10-16T04:42:08;4.03;;;2.60;;
17151;SDS011;8691;50.828;4.700;2022-10-16T04:44:35;3.10;;;2.50;;
17151;SDS011;8691;50.828;4.700;2022-10-16T04:47:02;4.80;;;2.80;;
17151;SDS011;8691;50.828;4.700;2022-10-16T04:49:29;6.40;;;2.70;;
17151;SDS011;8691;50.828;4.700;2022-10-16T04:51:55;3.37;;;2.27;;
17151;SDS011;8691;50.828;4.700;2022-10-16T04:54:23;4.23;;;2.50;;
17151;SDS011;8691;50.828;4.700;2022-10-16T04:56:51;3.92;;;2.40;;
17151;SDS011;8691;50.828;4.700;2022-10-16T04:59:18;4.07;;;2.58;;
17151;SDS011;8691;50.828;4.700;2022-10-16T05:01:45;2.58;;;2.20;;
17151;SDS011;8691;50.828;4.700;2022-10-16T05:04:12;4.13;;;2.40;;
17151;SDS011;8691;50.828;4.700;2022-10-16T05:06:39;3.42;;;2.28;;
17151;SDS011;8691;50.828;4.700;2022-10-16T05:09:06;4.23;;;2.50;;
17151;SDS011;8691;50.828;4.700;2022-10-16T05:11:33;2.65;;;2.17;;
17151;SDS011;8691;50.828;4.700;2022-10-16T05:13:59;6.27;;;2.00;;
17151;SDS011;8691;50.828;4.700;2022-10-16T05:16:26;2.40;;;2.20;;
17151;SDS011;8691;50.828;4.700;2022-10-16T05:18:53;4.47;;;2.47;;
17151;SDS011;8691;50.828;4.700;2022-10-16T05:21:20;3.72;;;2.47;;
17151;SDS011;8691;50.828;4.700;2022-10-16T05:23:47;3.45;;;2.40;;
17151;SDS011;8691;50.828;4.700;2022-10-16T05:26:14;4.30;;;2.58;;
17151;SDS011;8691;50.828;4.700;2022-10-16T05:28:41;4.10;;;2.63;;
17151;SDS011;8691;50.828;4.700;2022-10-16T05:31:09;3.72;;;2.40;;
17151;SDS011;8691;50.828;4.700;2022-10-16T05:33:35;3.90;;;2.45;;
17151;SDS011;8691;50.828;4.700;2022-10-16T05:36:03;3.97;;;2.20;;
17151;SDS011;8691;50.828;4.700;2022-10-16T05:38:29;5.20;;;2.58;;
17151;SDS011;8691;50.828;4.700;2022-10-16T05:40:55;6.13;;;2.30;;
17151;SDS011;8691;50.828;4.700;2022-10-16T05:43:23;3.83;;;2.37;;
17151;SDS011;8691;50.828;4.700;2022-10-16T05:45:59;2.60;;;2.40;;
17151;SDS011;8691;50.828;4.700;2022-10-16T05:48:24;4.33;;;2.50;;
17151;SDS011;8691;50.828;4.700;2022-10-16T05:50:57;2.30;;;1.90;;
17151;SDS011;8691;50.828;4.700;2022-10-16T05:53:27;3.23;;;2.50;;
17151;SDS011;8691;50.828;4.700;2022-10-16T05:55:56;4.50;;;2.60;;
17151;SDS011;8691;50.828;4.700;2022-10-16T05:58:21;6.43;;;2.43;;
17151;SDS011;8691;50.828;4.700;2022-10-16T06:00:57;4.80;;;2.53;;
17151;SDS011;8691;50.828;4.700;2022-10-16T06:03:24;4.22;;;2.55;;
17151;SDS011;8691;50.828;4.700;2022-10-16T06:05:52;3.90;;;2.40;;
17151;SDS011;8691;50.828;4.700;2022-10-16T06:08:20;4.97;;;2.80;;
17151;SDS011;8691;50.828;4.700;2022-10-16T06:10:46;5.47;;;2.80;;
17151;SDS011;8691;50.828;4.700;2022-10-16T06:13:13;5.00;;;3.00;;
17151;SDS011;8691;50.828;4.700;2022-10-16T06:15:41;3.23;;;2.60;;
17151;SDS011;8691;50.828;4.700;2022-10-16T06:18:08;4.57;;;2.80;;
17151;SDS011;8691;50.828;4.700;2022-10-16T06:20:35;3.50;;;2.50;;
17151;SDS011;8691;50.828;4.700;2022-10-16T06:23:01;4.43;;;2.07;;
17151;SDS011;8691;50.828;4.700;2022-10-16T06:25:28;3.70;;;2.30;;
17151;SDS011;8691;50.828;4.700;2022-10-16T06:27:55;3.30;;;2.97;;
17151;SDS011;8691;50.828;4.700;2022-10-16T06:30:21;4.33;;;2.40;;
17151;SDS011;8691;50.828;4.700;2022-10-16T06:32:49;3.73;;;2.97;;
17151;SDS011;8691;50.828;4.700;2022-10-16T06:35:16;3.28;;;2.97;;
17151;SDS011;8691;50.828;4.700;2022-10-16T06:37:43;3.17;;;2.72;;
17151;SDS011;8691;50.828;4.700;2022-10-16T06:40:10;6.73;;;2.80;;
17151;SDS011;8691;50.828;4.700;2022-10-16T06:42:37;3.53;;;2.88;;
17151;SDS011;8691;50.828;4.700;2022-10-16T06:45:04;3.95;;;2.85;;
17151;SDS011;8691;50.828;4.700;2022-10-16T06:47:31;3.85;;;2.60;;
17151;SDS011;8691;50.828;4.700;2022-10-16T06:49:58;3.65;;;2.72;;
17151;SDS011;8691;50.828;4.700;2022-10-16T06:52:28;3.77;;;3.00;;
17151;SDS011;8691;50.828;4.700;2022-10-16T06:54:52;4.13;;;2.70;;
17151;SDS011;8691;50.828;4.700;2022-10-16T06:57:19;4.87;;;2.50;;
17151;SDS011;8691;50.828;4.700;2022-10-16T06:59:47;5.07;;;2.20;;
17151;SDS011;8691;50.828;4.700;2022-10-16T07:02:14;4.50;;;2.75;;
17151;SDS011;8691;50.828;4.700;2022-10-16T07:04:40;3.30;;;2.60;;
17151;SDS011;8691;50.828;4.700;2022-10-16T07:07:07;4.43;;;3.00;;
17151;SDS011;8691;50.828;4.700;2022-10-16T07:09:34;7.05;;;3.08;;
17151;SDS011;8691;50.828;4.700;2022-10-16T07:12:02;4.30;;;2.88;;
17151;SDS011;8691;50.828;4.700;2022-10-16T07:14:29;3.77;;;2.80;;
17151;SDS011;8691;50.828;4.700;2022-10-16T07:16:56;4.50;;;2.53;;
17151;SDS011;8691;50.828;4.700;2022-10-16T07:19:23;4.67;;;2.73;;
17151;SDS011;8691;50.828;4.700;2022-10-16T07:21:50;4.57;;;2.90;;
17151;SDS011;8691;50.828;4.700;2022-10-16T07:24:17;4.40;;;2.78;;
17151;SDS011;8691;50.828;4.700;2022-10-16T07:26:44;4.57;;;2.43;;
17151;SDS011;8691;50.828;4.700;2022-10-16T07:29:14;3.20;;;2.05;;
17151;SDS011;8691;50.828;4.700;2022-10-16T07:31:43;3.77;;;2.37;;
17151;SDS011;8691;50.828;4.700;2022-10-16T07:34:10;3.07;;;2.20;;
17151;SDS011;8691;50.828;4.700;2022-10-16T07:36:36;2.35;;;2.10;;
17151;SDS011;8691;50.828;4.700;2022-10-16T07:39:03;2.83;;;1.60;;
17151;SDS011;8691;50.828;4.700;2022-10-16T07:41:30;1.65;;;1.50;;
17151;SDS011;8691;50.828;4.700;2022-10-16T07:43:57;2.45;;;1.50;;
17151;SDS011;8691;50.828;4.700;2022-10-16T07:46:24;3.47;;;1.45;;
17151;SDS011;8691;50.828;4.700;2022-10-16T07:48:51;3.50;;;1.63;;
17151;SDS011;8691;50.828;4.700;2022-10-16T07:51:18;4.00;;;1.55;;
17151;SDS011;8691;50.828;4.700;2022-10-16T07:53:45;2.90;;;1.50;;
17151;SDS011;8691;50.828;4.700;2022-10-16T07:56:11;3.50;;;1.20;;
17151;SDS011;8691;50.828;4.700;2022-10-16T07:58:38;2.43;;;1.30;;
17151;SDS011;8691;50.828;4.700;2022-10-16T08:01:05;2.67;;;1.50;;
17151;SDS011;8691;50.828;4.700;2022-10-16T08:03:34;2.10;;;1.47;;
17151;SDS011;8691;50.828;4.700;2022-10-16T08:06:02;1.50;;;1.35;;
17151;SDS011;8691;50.828;4.700;2022-10-16T08:08:29;2.87;;;1.60;;
17151;SDS011;8691;50.828;4.700;2022-10-16T08:10:56;2.35;;;1.17;;
17151;SDS011;8691;50.828;4.700;2022-10-16T08:13:23;2.28;;;1.20;;
17151;SDS011;8691;50.828;4.700;2022-10-16T08:15:49;1.97;;;1.23;;
17151;SDS011;8691;50.828;4.700;2022-10-16T08:18:16;1.40;;;1.00;;
17151;SDS011;8691;50.828;4.700;2022-10-16T08:20:43;2.10;;;1.00;;
17151;SDS011;8691;50.828;4.700;2022-10-16T08:23:10;1.33;;;0.80;;
17151;SDS011;8691;50.828;4.700;2022-10-16T08:25:40;1.73;;;1.10;;
17151;SDS011;8691;50.828;4.700;2022-10-16T08:28:08;2.27;;;1.20;;
17151;SDS011;8691;50.828;4.700;2022-10-16T08:30:35;2.67;;;1.00;;
17151;SDS011;8691;50.828;4.700;2022-10-16T08:33:01;2.97;;;1.30;;
17151;SDS011;8691;50.828;4.700;2022-10-16T08:35:28;1.70;;;1.00;;
17151;SDS011;8691;50.828;4.700;2022-10-16T08:37:56;3.30;;;1.10;;
17151;SDS011;8691;50.828;4.700;2022-10-16T08:40:26;2.23;;;1.10;;
17151;SDS011;8691;50.828;4.700;2022-10-16T08:45:38;2.90;;;1.00;;
17151;SDS011;8691;50.828;4.700;2022-10-16T08:48:14;2.08;;;0.90;;
17151;SDS011;8691;50.828;4.700;2022-10-16T08:50:38;3.70;;;1.10;;
17151;SDS011;8691;50.828;4.700;2022-10-16T08:53:04;3.15;;;1.00;;
17151;SDS011;8691;50.828;4.700;2022-10-16T08:55:41;3.72;;;1.40;;
17151;SDS011;8691;50.828;4.700;2022-10-16T08:58:00;3.08;;;1.10;;
17151;SDS011;8691;50.828;4.700;2022-10-16T09:00:27;2.47;;;1.00;;
17151;SDS011;8691;50.828;4.700;2022-10-16T09:03:16;2.00;;;0.90;;
17151;SDS011;8691;50.828;4.700;2022-10-16T09:05:41;3.03;;;0.90;;
17151;SDS011;8691;50.828;4.700;2022-10-16T09:08:22;4.00;;;1.03;;
17151;SDS011;8691;50.828;4.700;2022-10-16T09:10:56;2.22;;;1.08;;
17151;SDS011;8691;50.828;4.700;2022-10-16T09:13:28;2.73;;;0.90;;
17151;SDS011;8691;50.828;4.700;2022-10-16T09:18:45;2.93;;;0.97;;
17151;SDS011;8691;50.828;4.700;2022-10-16T09:21:10;3.07;;;1.00;;
17151;SDS011;8691;50.828;4.700;2022-10-16T09:23:36;2.95;;;1.00;;
17151;SDS011;8691;50.828;4.700;2022-10-16T09:26:03;3.65;;;1.10;;
17151;SDS011;8691;50.828;4.700;2022-10-16T09:28:30;3.77;;;1.00;;
17151;SDS011;8691;50.828;4.700;2022-10-16T09:30:57;3.05;;;1.10;;
17151;SDS011;8691;50.828;4.700;2022-10-16T09:33:25;3.90;;;0.90;;
17151;SDS011;8691;50.828;4.700;2022-10-16T09:35:51;3.70;;;1.00;;
17151;SDS011;8691;50.828;4.700;2022-10-16T09:38:23;2.42;;;0.90;;
17151;SDS011;8691;50.828;4.700;2022-10-16T09:40:50;2.20;;;1.17;;
17151;SDS011;8691;50.828;4.700;2022-10-16T09:43:24;2.50;;;0.93;;
17151;SDS011;8691;50.828;4.700;2022-10-16T09:46:00;3.50;;;1.00;;
17151;SDS011;8691;50.828;4.700;2022-10-16T09:48:37;2.03;;;0.98;;
17151;SDS011;8691;50.828;4.700;2022-10-16T09:51:03;3.80;;;1.00;;
17151;SDS011;8691;50.828;4.700;2022-10-16T09:53:44;2.70;;;1.05;;
17151;SDS011;8691;50.828;4.700;2022-10-16T09:56:06;2.73;;;1.00;;
17151;SDS011;8691;50.828;4.700;2022-10-16T09:58:33;2.70;;;0.80;;
17151;SDS011;8691;50.828;4.700;2022-10-16T10:01:00;2.63;;;0.87;;
17151;SDS011;8691;50.828;4.700;2022-10-16T10:06:06;1.83;;;0.80;;
17151;SDS011;8691;50.828;4.700;2022-10-16T10:08:30;2.88;;;0.90;;
17151;SDS011;8691;50.828;4.700;2022-10-16T10:10:58;1.88;;;0.88;;
17151;SDS011;8691;50.828;4.700;2022-10-16T10:13:24;3.57;;;1.00;;
17151;SDS011;8691;50.828;4.700;2022-10-16T10:15:51;2.42;;;0.90;;
17151;SDS011;8691;50.828;4.700;2022-10-16T10:18:19;4.60;;;1.17;;
17151;SDS011;8691;50.828;4.700;2022-10-16T10:20:45;2.87;;;0.90;;
17151;SDS011;8691;50.828;4.700;2022-10-16T10:23:31;1.38;;;0.60;;
17151;SDS011;8691;50.828;4.700;2022-10-16T10:26:01;2.95;;;0.80;;
17151;SDS011;8691;50.828;4.700;2022-10-16T10:28:41;3.60;;;0.87;;
17151;SDS011;8691;50.828;4.700;2022-10-16T10:31:25;2.80;;;0.80;;
17151;SDS011;8691;50.828;4.700;2022-10-16T10:39:23;4.07;;;0.90;;
17151;SDS011;8691;50.828;4.700;2022-10-16T10:42:02;3.23;;;0.87;;
17151;SDS011;8691;50.828;4.700;2022-10-16T10:52:58;2.60;;;0.80;;
17151;SDS011;8691;50.828;4.700;2022-10-16T10:55:29;4.17;;;1.07;;
17151;SDS011;8691;50.828;4.700;2022-10-16T10:58:10;4.93;;;1.00;;
17151;SDS011;8691;50.828;4.700;2022-10-16T11:06:17;3.37;;;0.97;;
17151;SDS011;8691;50.828;4.700;2022-10-16T11:08:51;2.55;;;1.00;;
17151;SDS011;8691;50.828;4.700;2022-10-16T11:14:24;3.97;;;1.02;;
17151;SDS011;8691;50.828;4.700;2022-10-16T11:21:55;2.80;;;1.00;;
17151;SDS011;8691;50.828;4.700;2022-10-16T11:24:22;2.90;;;1.00;;
17151;SDS011;8691;50.828;4.700;2022-10-16T11:26:51;2.33;;;0.90;;
17151;SDS011;8691;50.828;4.700;2022-10-16T11:29:23;4.50;;;1.15;;
17151;SDS011;8691;50.828;4.700;2022-10-16T11:31:59;3.73;;;1.17;;
17151;SDS011;8691;50.828;4.700;2022-10-16T11:37:03;4.07;;;1.10;;
17151;SDS011;8691;50.828;4.700;2022-10-16T11:39:27;3.05;;;1.10;;
17151;SDS011;8691;50.828;4.700;2022-10-16T11:53:04;5.17;;;1.20;;
17151;SDS011;8691;50.828;4.700;2022-10-16T11:55:31;2.60;;;0.90;;
17151;SDS011;8691;50.828;4.700;2022-10-16T11:57:59;4.53;;;0.97;;
17151;SDS011;8691;50.828;4.700;2022-10-16T12:00:26;2.00;;;0.90;;
17151;SDS011;8691;50.828;4.700;2022-10-16T12:03:05;3.40;;;1.10;;
17151;SDS011;8691;50.828;4.700;2022-10-16T12:08:30;4.55;;;1.10;;
17151;SDS011;8691;50.828;4.700;2022-10-16T12:11:05;1.47;;;0.70;;
17151;SDS011;8691;50.828;4.700;2022-10-16T12:13:28;4.00;;;1.27;;
17151;SDS011;8691;50.828;4.700;2022-10-16T12:18:42;2.40;;;0.97;;
17151;SDS011;8691;50.828;4.700;2022-10-16T12:21:06;1.93;;;0.70;;
17151;SDS011;8691;50.828;4.700;2022-10-16T12:23:33;3.85;;;0.85;;
17151;SDS011;8691;50.828;4.700;2022-10-16T12:25:59;2.28;;;0.88;;
17151;SDS011;8691;50.828;4.700;2022-10-16T12:28:27;2.07;;;0.80;;
17151;SDS011;8691;50.828;4.700;2022-10-16T12:30:54;3.40;;;0.80;;
17151;SDS011;8691;50.828;4.700;2022-10-16T12:33:27;1.97;;;0.93;;
17151;SDS011;8691;50.828;4.700;2022-10-16T12:36:03;2.22;;;0.82;;
17151;SDS011;8691;50.828;4.700;2022-10-16T12:38:30;1.97;;;0.80;;
17151;SDS011;8691;50.828;4.700;2022-10-16T12:41:23;2.53;;;0.70;;
17151;SDS011;8691;50.828;4.700;2022-10-16T12:43:42;3.13;;;0.90;;
17151;SDS011;8691;50.828;4.700;2022-10-16T12:48:43;2.63;;;0.70;;
17151;SDS011;8691;50.828;4.700;2022-10-16T12:51:23;2.97;;;0.88;;
17151;SDS011;8691;50.828;4.700;2022-10-16T12:54:02;3.78;;;0.93;;
17151;SDS011;8691;50.828;4.700;2022-10-16T12:56:58;3.73;;;1.03;;
17151;SDS011;8691;50.828;4.700;2022-10-16T12:59:13;2.30;;;1.00;;
17151;SDS011;8691;50.828;4.700;2022-10-16T13:12:46;3.07;;;1.00;;
17151;SDS011;8691;50.828;4.700;2022-10-16T13:23:36;3.40;;;1.20;;
17151;SDS011;8691;50.828;4.700;2022-10-16T13:28:49;2.93;;;1.17;;
17151;SDS011;8691;50.828;4.700;2022-10-16T13:31:19;2.30;;;0.83;;
17151;SDS011;8691;50.828;4.700;2022-10-16T13:33:47;2.23;;;1.10;;
17151;SDS011;8691;50.828;4.700;2022-10-16T13:36:47;3.35;;;1.10;;
17151;SDS011;8691;50.828;4.700;2022-10-16T13:39:09;3.13;;;1.47;;
17151;SDS011;8691;50.828;4.700;2022-10-16T13:41:27;2.58;;;1.00;;
17151;SDS011;8691;50.828;4.700;2022-10-16T13:43:55;3.25;;;1.00;;
17151;SDS011;8691;50.828;4.700;2022-10-16T13:46:23;5.62;;;1.27;;
17151;SDS011;8691;50.828;4.700;2022-10-16T13:48:58;3.00;;;1.00;;
17151;SDS011;8691;50.828;4.700;2022-10-16T13:51:28;3.40;;;0.90;;
17151;SDS011;8691;50.828;4.700;2022-10-16T13:53:55;2.00;;;0.90;;
17151;SDS011;8691;50.828;4.700;2022-10-16T13:56:22;4.00;;;0.97;;
17151;SDS011;8691;50.828;4.700;2022-10-16T13:59:01;2.62;;;0.90;;
17151;SDS011;8691;50.828;4.700;2022-10-16T14:01:25;2.37;;;0.93;;
17151;SDS011;8691;50.828;4.700;2022-10-16T14:03:51;2.10;;;0.80;;
17151;SDS011;8691;50.828;4.700;2022-10-16T14:06:20;1.67;;;0.83;;
17151;SDS011;8691;50.828;4.700;2022-10-16T14:08:59;2.00;;;0.83;;
17151;SDS011;8691;50.828;4.700;2022-10-16T14:11:23;2.40;;;0.90;;
17151;SDS011;8691;50.828;4.700;2022-10-16T14:13:50;2.12;;;0.90;;
17151;SDS011;8691;50.828;4.700;2022-10-16T14:16:20;3.30;;;0.90;;
17151;SDS011;8691;50.828;4.700;2022-10-16T14:18:50;1.73;;;0.80;;
17151;SDS011;8691;50.828;4.700;2022-10-16T14:21:13;1.93;;;0.80;;
17151;SDS011;8691;50.828;4.700;2022-10-16T14:23:40;2.70;;;0.90;;
17151;SDS011;8691;50.828;4.700;2022-10-16T14:28:37;2.05;;;0.88;;
17151;SDS011;8691;50.828;4.700;2022-10-16T14:31:20;1.67;;;0.80;;
17151;SDS011;8691;50.828;4.700;2022-10-16T14:33:32;2.35;;;0.98;;
17151;SDS011;8691;50.828;4.700;2022-10-16T14:38:40;2.73;;;1.00;;
17151;SDS011;8691;50.828;4.700;2022-10-16T14:41:04;2.55;;;1.08;;
17151;SDS011;8691;50.828;4.700;2022-10-16T14:43:39;4.62;;;1.40;;
17151;SDS011;8691;50.828;4.700;2022-10-16T14:46:06;2.83;;;1.00;;
17151;SDS011;8691;50.828;4.700;2022-10-16T14:48:41;2.40;;;1.00;;
17151;SDS011;8691;50.828;4.700;2022-10-16T14:51:08;4.13;;;1.10;;
17151;SDS011;8691;50.828;4.700;2022-10-16T14:53:34;3.13;;;0.90;;
17151;SDS011;8691;50.828;4.700;2022-10-16T14:56:05;2.00;;;0.77;;
17151;SDS011;8691;50.828;4.700;2022-10-16T14:58:28;3.80;;;1.20;;
17151;SDS011;8691;50.828;4.700;2022-10-16T15:00:55;3.20;;;1.07;;
17151;SDS011;8691;50.828;4.700;2022-10-16T15:03:21;2.95;;;1.00;;
17151;SDS011;8691;50.828;4.700;2022-10-16T15:05:48;3.47;;;0.90;;
17151;SDS011;8691;50.828;4.700;2022-10-16T15:08:15;3.10;;;1.00;;
17151;SDS011;8691;50.828;4.700;2022-10-16T15:10:43;3.33;;;1.25;;
17151;SDS011;8691;50.828;4.700;2022-10-16T15:13:13;4.07;;;1.17;;
17151;SDS011;8691;50.828;4.700;2022-10-16T15:15:43;1.98;;;1.30;;
17151;SDS011;8691;50.828;4.700;2022-10-16T15:18:10;3.93;;;1.43;;
17151;SDS011;8691;50.828;4.700;2022-10-16T15:20:37;4.17;;;1.50;;
17151;SDS011;8691;50.828;4.700;2022-10-16T15:23:05;3.92;;;1.20;;
17151;SDS011;8691;50.828;4.700;2022-10-16T15:25:33;2.75;;;1.23;;
17151;SDS011;8691;50.828;4.700;2022-10-16T15:28:01;3.50;;;1.38;;
17151;SDS011;8691;50.828;4.700;2022-10-16T15:30:27;3.97;;;1.73;;
17151;SDS011;8691;50.828;4.700;2022-10-16T15:32:54;3.97;;;1.80;;
17151;SDS011;8691;50.828;4.700;2022-10-16T15:35:21;5.20;;;1.00;;
17151;SDS011;8691;50.828;4.700;2022-10-16T15:37:48;2.33;;;0.93;;
17151;SDS011;8691;50.828;4.700;2022-10-16T15:40:15;4.95;;;1.35;;
17151;SDS011;8691;50.828;4.700;2022-10-16T15:42:41;3.45;;;1.40;;
17151;SDS011;8691;50.828;4.700;2022-10-16T15:45:09;3.40;;;1.00;;
17151;SDS011;8691;50.828;4.700;2022-10-16T15:47:36;3.22;;;1.45;;
17151;SDS011;8691;50.828;4.700;2022-10-16T15:50:03;3.93;;;1.43;;
17151;SDS011;8691;50.828;4.700;2022-10-16T15:52:30;3.47;;;1.70;;
17151;SDS011;8691;50.828;4.700;2022-10-16T15:54:57;5.15;;;1.90;;
17151;SDS011;8691;50.828;4.700;2022-10-16T15:57:25;3.43;;;2.13;;
17151;SDS011;8691;50.828;4.700;2022-10-16T15:59:51;6.27;;;4.87;;
17151;SDS011;8691;50.828;4.700;2022-10-16T16:02:18;6.45;;;5.85;;
17151;SDS011;8691;50.828;4.700;2022-10-16T16:04:45;5.53;;;2.33;;
17151;SDS011;8691;50.828;4.700;2022-10-16T16:07:12;3.70;;;1.60;;
17151;SDS011;8691;50.828;4.700;2022-10-16T16:09:38;4.23;;;1.50;;
17151;SDS011;8691;50.828;4.700;2022-10-16T16:12:05;4.00;;;1.62;;
17151;SDS011;8691;50.828;4.700;2022-10-16T16:14:32;3.23;;;2.00;;
17151;SDS011;8691;50.828;4.700;2022-10-16T16:16:59;3.85;;;1.75;;
17151;SDS011;8691;50.828;4.700;2022-10-16T16:19:26;3.10;;;2.00;;
17151;SDS011;8691;50.828;4.700;2022-10-16T16:21:53;3.35;;;1.80;;
17151;SDS011;8691;50.828;4.700;2022-10-16T16:24:20;3.67;;;1.90;;
17151;SDS011;8691;50.828;4.700;2022-10-16T16:26:48;5.10;;;2.30;;
17151;SDS011;8691;50.828;4.700;2022-10-16T16:29:15;5.25;;;2.22;;
17151;SDS011;8691;50.828;4.700;2022-10-16T16:31:42;3.07;;;1.90;;
17151;SDS011;8691;50.828;4.700;2022-10-16T16:34:08;4.73;;;2.47;;
17151;SDS011;8691;50.828;4.700;2022-10-16T16:36:35;4.57;;;2.73;;
17151;SDS011;8691;50.828;4.700;2022-10-16T16:39:02;5.32;;;2.33;;
17151;SDS011;8691;50.828;4.700;2022-10-16T16:41:29;5.13;;;2.00;;
17151;SDS011;8691;50.828;4.700;2022-10-16T16:44:01;2.67;;;1.67;;